sensor_id;sensor_type;location;lat;lon;timestamp;temperature;humidity
47765;DHT22;33529;49.242;8.670;2022-11-28T00:01:22;5.10;99.90
47765;DHT22;33529;49.242;8.670;2022-11-28T00:03:50;5.10;99.90
47765;DHT22;33529;49.242;8.670;2022-11-28T00:06:18;5.10;99.90
47765;DHT22;33529;49.242;8.670;2022-11-28T00:08:45;5.10;99.90
47765;DHT22;33529;49.242;8.670;2022-11-28T00:11:14;5.10;99.90
47765;DHT22;33529;49.242;8.670;2022-11-28T00:13:42;5.10;99.90
47765;DHT22;33529;49.242;8.670;2022-11-28T00:16:14;5.00;99.90
47765;DHT22;33529;49.242;8.670;2022-11-28T00:18:41;5.00;99.90
47765;DHT22;33529;49.242;8.670;2022-11-28T00:21:11;5.10;99.90
47765;DHT22;33529;49.242;8.670;2022-11-28T00:23:38;5.00;99.90
47765;DHT22;33529;49.242;8.670;2022-11-28T00:26:08;5.00;99.90
47765;DHT22;33529;49.242;8.670;2022-11-28T00:28:35;5.00;99.90
47765;DHT22;33529;49.242;8.670;2022-11-28T00:31:02;4.90;99.90
47765;DHT22;33529;49.242;8.670;2022-11-28T00:33:30;5.00;99.90
47765;DHT22;33529;49.242;8.670;2022-11-28T00:36:02;5.00;99.90
47765;DHT22;33529;49.242;8.670;2022-11-28T00:38:30;5.00;99.90
47765;DHT22;33529;49.242;8.670;2022-11-28T00:41:03;4.90;99.90
47765;DHT22;33529;49.242;8.670;2022-11-28T00:43:30;4.90;99.90
47765;DHT22;33529;49.242;8.670;2022-11-28T00:45:57;4.90;99.90
47765;DHT22;33529;49.242;8.670;2022-11-28T00:48:24;4.90;99.90
47765;DHT22;33529;49.242;8.670;2022-11-28T00:51:03;4.90;99.90
47765;DHT22;33529;49.242;8.670;2022-11-28T00:53:30;4.90;99.90
47765;DHT22;33529;49.242;8.670;2022-11-28T00:55:57;4.80;99.90
47765;DHT22;33529;49.242;8.670;2022-11-28T00:58:24;4.80;99.90
47765;DHT22;33529;49.242;8.670;2022-11-28T01:00:51;4.70;99.90
47765;DHT22;33529;49.242;8.670;2022-11-28T01:03:18;4.70;99.90
47765;DHT22;33529;49.242;8.670;2022-11-28T01:05:44;4.70;99.90
47765;DHT22;33529;49.242;8.670;2022-11-28T01:08:11;4.60;99.90
47765;DHT22;33529;49.242;8.670;2022-11-28T01:10:40;4.60;99.90
47765;DHT22;33529;49.242;8.670;2022-11-28T01:13:11;4.70;99.90
47765;DHT22;33529;49.242;8.670;2022-11-28T01:15:40;4.80;99.90
47765;DHT22;33529;49.242;8.670;2022-11-28T01:18:07;4.80;99.90
47765;DHT22;33529;49.242;8.670;2022-11-28T01:20:34;4.80;99.90
47765;DHT22;33529;49.242;8.670;2022-11-28T01:23:01;4.80;99.90
47765;DHT22;33529;49.242;8.670;2022-11-28T01:25:29;4.70;99.90
47765;DHT22;33529;49.242;8.670;2022-11-28T01:27:55;4.60;99.90
47765;DHT22;33529;49.242;8.670;2022-11-28T01:30:22;4.60;99.90
47765;DHT22;33529;49.242;8.670;2022-11-28T01:32:49;4.60;99.90
47765;DHT22;33529;49.242;8.670;2022-11-28T01:35:16;4.60;99.90
47765;DHT22;33529;49.242;8.670;2022-11-28T01:37:43;4.70;99.90
47765;DHT22;33529;49.242;8.670;2022-11-28T01:40:11;4.70;99.90
47765;DHT22;33529;49.242;8.670;2022-11-28T01:42:38;4.60;99.90
47765;DHT22;33529;49.242;8.670;2022-11-28T01:45:29;4.60;99.90
47765;DHT22;33529;49.242;8.670;2022-11-28T01:47:58;4.60;99.90
47765;DHT22;33529;49.242;8.670;2022-11-28T01:50:27;4.60;99.90
47765;DHT22;33529;49.242;8.670;2022-11-28T01:52:56;4.70;99.90
47765;DHT22;33529;49.242;8.670;2022-11-28T01:55:27;4.70;99.90
47765;DHT22;33529;49.242;8.670;2022-11-28T01:57:56;4.70;99.90
47765;DHT22;33529;49.242;8.670;2022-11-28T02:00:23;4.70;99.90
47765;DHT22;33529;49.242;8.670;2022-11-28T02:02:59;4.60;99.90
47765;DHT22;33529;49.242;8.670;2022-11-28T02:05:28;4.70;99.90
47765;DHT22;33529;49.242;8.670;2022-11-28T02:07:55;4.70;99.90
47765;DHT22;33529;49.242;8.670;2022-11-28T02:10:29;4.70;99.90
47765;DHT22;33529;49.242;8.670;2022-11-28T02:13:23;4.60;99.90
47765;DHT22;33529;49.242;8.670;2022-11-28T02:35:37;4.50;99.90
47765;DHT22;33529;49.242;8.670;2022-11-28T02:41:06;4.50;99.90
47765;DHT22;33529;49.242;8.670;2022-11-28T02:46:28;4.50;99.90
47765;DHT22;33529;49.242;8.670;2022-11-28T02:49:02;4.50;99.90
47765;DHT22;33529;49.242;8.670;2022-11-28T02:51:42;4.50;99.90
47765;DHT22;33529;49.242;8.670;2022-11-28T02:54:12;4.50;99.90
47765;DHT22;33529;49.242;8.670;2022-11-28T02:56:50;4.50;99.90
47765;DHT22;33529;49.242;8.670;2022-11-28T02:59:32;4.40;99.90
47765;DHT22;33529;49.242;8.670;2022-11-28T03:02:23;4.50;99.90
47765;DHT22;33529;49.242;8.670;2022-11-28T03:05:06;4.40;99.90
47765;DHT22;33529;49.242;8.670;2022-11-28T03:07:50;4.40;99.90
47765;DHT22;33529;49.242;8.670;2022-11-28T03:10:46;4.40;99.90
47765;DHT22;33529;49.242;8.670;2022-11-28T03:13:25;4.40;99.90
47765;DHT22;33529;49.242;8.670;2022-11-28T03:16:13;4.30;99.90
47765;DHT22;33529;49.242;8.670;2022-11-28T03:19:14;4.30;99.90
47765;DHT22;33529;49.242;8.670;2022-11-28T03:24:46;4.30;99.90
47765;DHT22;33529;49.242;8.670;2022-11-28T03:27:17;4.30;99.90
47765;DHT22;33529;49.242;8.670;2022-11-28T03:29:53;4.30;99.90
47765;DHT22;33529;49.242;8.670;2022-11-28T03:32:30;4.40;99.90
47765;DHT22;33529;49.242;8.670;2022-11-28T03:35:10;4.40;99.90
47765;DHT22;33529;49.242;8.670;2022-11-28T03:37:43;4.30;99.90
47765;DHT22;33529;49.242;8.670;2022-11-28T03:40:14;4.40;99.90
47765;DHT22;33529;49.242;8.670;2022-11-28T03:43:02;4.40;99.90
47765;DHT22;33529;49.242;8.670;2022-11-28T03:45:37;4.30;99.90
47765;DHT22;33529;49.242;8.670;2022-11-28T03:48:15;4.30;99.90
47765;DHT22;33529;49.242;8.670;2022-11-28T03:50:48;4.30;99.90
47765;DHT22;33529;49.242;8.670;2022-11-28T03:53:23;4.30;99.90
47765;DHT22;33529;49.242;8.670;2022-11-28T03:55:59;4.30;99.90
47765;DHT22;33529;49.242;8.670;2022-11-28T03:58:39;4.30;99.90
47765;DHT22;33529;49.242;8.670;2022-11-28T04:01:28;4.30;99.90
47765;DHT22;33529;49.242;8.670;2022-11-28T04:06:43;4.30;99.90
47765;DHT22;33529;49.242;8.670;2022-11-28T04:09:17;4.30;99.90
47765;DHT22;33529;49.242;8.670;2022-11-28T04:11:58;4.20;99.90
47765;DHT22;33529;49.242;8.670;2022-11-28T04:14:43;4.20;99.90
47765;DHT22;33529;49.242;8.670;2022-11-28T04:17:28;4.20;99.90
47765;DHT22;33529;49.242;8.670;2022-11-28T04:20:18;4.10;99.90
47765;DHT22;33529;49.242;8.670;2022-11-28T04:22:51;4.10;99.90
47765;DHT22;33529;49.242;8.670;2022-11-28T04:25:21;4.10;99.90
47765;DHT22;33529;49.242;8.670;2022-11-28T04:28:04;4.10;99.90
47765;DHT22;33529;49.242;8.670;2022-11-28T04:30:32;4.10;99.90
47765;DHT22;33529;49.242;8.670;2022-11-28T04:33:02;4.10;99.90
47765;DHT22;33529;49.242;8.670;2022-11-28T04:35:34;4.00;99.90
47765;DHT22;33529;49.242;8.670;2022-11-28T04:38:04;4.00;99.90
47765;DHT22;33529;49.242;8.670;2022-11-28T04:40:36;4.00;99.90
47765;DHT22;33529;49.242;8.670;2022-11-28T04:43:09;4.10;99.90
47765;DHT22;33529;49.242;8.670;2022-11-28T04:45:41;4.10;99.90
47765;DHT22;33529;49.242;8.670;2022-11-28T04:48:10;4.00;99.90
47765;DHT22;33529;49.242;8.670;2022-11-28T04:50:47;4.00;99.90
47765;DHT22;33529;49.242;8.670;2022-11-28T04:53:30;4.00;99.90
47765;DHT22;33529;49.242;8.670;2022-11-28T04:56:05;4.00;99.90
47765;DHT22;33529;49.242;8.670;2022-11-28T04:58:42;4.10;99.90
47765;DHT22;33529;49.242;8.670;2022-11-28T05:01:13;4.10;99.90
47765;DHT22;33529;49.242;8.670;2022-11-28T05:03:42;4.10;99.90
47765;DHT22;33529;49.242;8.670;2022-11-28T05:06:09;4.10;99.90
47765;DHT22;33529;49.242;8.670;2022-11-28T05:08:36;4.10;99.90
47765;DHT22;33529;49.242;8.670;2022-11-28T05:11:03;4.10;99.90
47765;DHT22;33529;49.242;8.670;2022-11-28T05:13:30;4.10;99.90
47765;DHT22;33529;49.242;8.670;2022-11-28T05:15:59;4.00;99.90
47765;DHT22;33529;49.242;8.670;2022-11-28T05:18:26;4.10;99.90
47765;DHT22;33529;49.242;8.670;2022-11-28T05:20:57;4.00;99.90
47765;DHT22;33529;49.242;8.670;2022-11-28T05:23:24;4.00;99.90
47765;DHT22;33529;49.242;8.670;2022-11-28T05:25:51;4.00;99.90
47765;DHT22;33529;49.242;8.670;2022-11-28T05:28:18;4.00;99.90
47765;DHT22;33529;49.242;8.670;2022-11-28T05:30:48;4.00;99.90
47765;DHT22;33529;49.242;8.670;2022-11-28T05:33:21;4.00;99.90
47765;DHT22;33529;49.242;8.670;2022-11-28T05:35:48;4.00;99.90
47765;DHT22;33529;49.242;8.670;2022-11-28T05:38:15;4.00;99.90
47765;DHT22;33529;49.242;8.670;2022-11-28T05:40:42;4.00;99.90
47765;DHT22;33529;49.242;8.670;2022-11-28T05:43:10;4.00;99.90
47765;DHT22;33529;49.242;8.670;2022-11-28T05:45:41;4.00;99.90
47765;DHT22;33529;49.242;8.670;2022-11-28T05:48:08;4.00;99.90
47765;DHT22;33529;49.242;8.670;2022-11-28T05:50:40;4.00;99.90
47765;DHT22;33529;49.242;8.670;2022-11-28T05:53:07;4.00;99.90
47765;DHT22;33529;49.242;8.670;2022-11-28T05:55:37;4.00;99.90
47765;DHT22;33529;49.242;8.670;2022-11-28T05:58:05;3.90;99.90
47765;DHT22;33529;49.242;8.670;2022-11-28T06:00:32;4.00;99.90
47765;DHT22;33529;49.242;8.670;2022-11-28T06:02:59;4.00;99.90
47765;DHT22;33529;49.242;8.670;2022-11-28T06:05:27;4.00;99.90
47765;DHT22;33529;49.242;8.670;2022-11-28T06:08:10;3.90;99.90
47765;DHT22;33529;49.242;8.670;2022-11-28T06:10:38;4.00;99.90
47765;DHT22;33529;49.242;8.670;2022-11-28T06:13:05;4.00;99.90
47765;DHT22;33529;49.242;8.670;2022-11-28T06:15:32;4.00;99.90
47765;DHT22;33529;49.242;8.670;2022-11-28T06:18:04;3.90;99.90
47765;DHT22;33529;49.242;8.670;2022-11-28T06:20:33;3.90;99.90
47765;DHT22;33529;49.242;8.670;2022-11-28T06:23:00;4.00;99.90
47765;DHT22;33529;49.242;8.670;2022-11-28T06:25:27;4.00;99.90
47765;DHT22;33529;49.242;8.670;2022-11-28T06:27:53;3.90;99.90
47765;DHT22;33529;49.242;8.670;2022-11-28T06:30:20;3.90;99.90
47765;DHT22;33529;49.242;8.670;2022-11-28T06:32:47;3.90;99.90
47765;DHT22;33529;49.242;8.670;2022-11-28T06:35:14;4.00;99.90
47765;DHT22;33529;49.242;8.670;2022-11-28T06:37:41;4.00;99.90
47765;DHT22;33529;49.242;8.670;2022-11-28T06:40:08;4.00;99.90
47765;DHT22;33529;49.242;8.670;2022-11-28T06:42:35;4.00;99.90
47765;DHT22;33529;49.242;8.670;2022-11-28T06:45:03;4.00;99.90
47765;DHT22;33529;49.242;8.670;2022-11-28T06:47:31;4.00;99.90
47765;DHT22;33529;49.242;8.670;2022-11-28T06:50:00;4.00;99.90
47765;DHT22;33529;49.242;8.670;2022-11-28T06:52:28;4.00;99.90
47765;DHT22;33529;49.242;8.670;2022-11-28T06:54:54;3.90;99.90
47765;DHT22;33529;49.242;8.670;2022-11-28T06:57:21;4.00;99.90
47765;DHT22;33529;49.242;8.670;2022-11-28T06:59:48;4.00;99.90
47765;DHT22;33529;49.242;8.670;2022-11-28T07:02:16;4.00;99.90
47765;DHT22;33529;49.242;8.670;2022-11-28T07:04:43;4.00;99.90
47765;DHT22;33529;49.242;8.670;2022-11-28T07:07:10;4.00;99.90
47765;DHT22;33529;49.242;8.670;2022-11-28T07:09:42;4.00;99.90
47765;DHT22;33529;49.242;8.670;2022-11-28T07:12:09;4.00;99.90
47765;DHT22;33529;49.242;8.670;2022-11-28T07:14:36;4.10;99.90
47765;DHT22;33529;49.242;8.670;2022-11-28T07:17:03;4.10;99.90
47765;DHT22;33529;49.242;8.670;2022-11-28T07:19:30;4.00;99.90
47765;DHT22;33529;49.242;8.670;2022-11-28T07:21:57;4.10;99.90
47765;DHT22;33529;49.242;8.670;2022-11-28T07:24:24;4.10;99.90
47765;DHT22;33529;49.242;8.670;2022-11-28T07:26:51;4.10;99.90
47765;DHT22;33529;49.242;8.670;2022-11-28T07:29:18;4.10;99.90
47765;DHT22;33529;49.242;8.670;2022-11-28T07:31:45;4.10;99.90
47765;DHT22;33529;49.242;8.670;2022-11-28T07:34:15;4.10;99.90
47765;DHT22;33529;49.242;8.670;2022-11-28T07:36:42;4.10;99.90
47765;DHT22;33529;49.242;8.670;2022-11-28T07:39:11;4.10;99.90
47765;DHT22;33529;49.242;8.670;2022-11-28T07:41:39;4.10;99.90
47765;DHT22;33529;49.242;8.670;2022-11-28T07:44:05;4.10;99.90
47765;DHT22;33529;49.242;8.670;2022-11-28T07:46:33;4.10;99.90
47765;DHT22;33529;49.242;8.670;2022-11-28T07:49:00;4.10;99.90
47765;DHT22;33529;49.242;8.670;2022-11-28T07:51:30;4.20;99.90
47765;DHT22;33529;49.242;8.670;2022-11-28T07:53:57;4.20;99.90
47765;DHT22;33529;49.242;8.670;2022-11-28T07:56:27;4.20;99.90
47765;DHT22;33529;49.242;8.670;2022-11-28T07:59:06;4.20;99.90
47765;DHT22;33529;49.242;8.670;2022-11-28T08:01:34;4.30;99.90
47765;DHT22;33529;49.242;8.670;2022-11-28T08:04:08;4.30;99.90
47765;DHT22;33529;49.242;8.670;2022-11-28T08:06:38;4.30;99.90
47765;DHT22;33529;49.242;8.670;2022-11-28T08:09:05;4.30;99.90
47765;DHT22;33529;49.242;8.670;2022-11-28T08:11:33;4.30;99.90
47765;DHT22;33529;49.242;8.670;2022-11-28T08:14:00;4.40;99.90
47765;DHT22;33529;49.242;8.670;2022-11-28T08:16:28;4.50;99.90
47765;DHT22;33529;49.242;8.670;2022-11-28T08:18:56;4.50;99.90
47765;DHT22;33529;49.242;8.670;2022-11-28T08:21:27;4.50;99.90
47765;DHT22;33529;49.242;8.670;2022-11-28T08:23:55;4.60;99.90
47765;DHT22;33529;49.242;8.670;2022-11-28T08:26:24;4.60;99.90
47765;DHT22;33529;49.242;8.670;2022-11-28T08:28:56;4.70;99.90
47765;DHT22;33529;49.242;8.670;2022-11-28T08:31:26;4.70;99.90
47765;DHT22;33529;49.242;8.670;2022-11-28T08:33:55;4.70;99.90
47765;DHT22;33529;49.242;8.670;2022-11-28T08:36:23;4.70;99.90
47765;DHT22;33529;49.242;8.670;2022-11-28T08:38:50;4.80;99.90
47765;DHT22;33529;49.242;8.670;2022-11-28T08:41:36;4.90;99.90
47765;DHT22;33529;49.242;8.670;2022-11-28T08:44:03;4.90;99.90
47765;DHT22;33529;49.242;8.670;2022-11-28T08:46:30;5.00;99.90
47765;DHT22;33529;49.242;8.670;2022-11-28T08:48:58;4.90;99.90
47765;DHT22;33529;49.242;8.670;2022-11-28T08:51:30;5.00;99.90
47765;DHT22;33529;49.242;8.670;2022-11-28T08:53:57;5.10;99.90
47765;DHT22;33529;49.242;8.670;2022-11-28T08:56:26;5.10;99.90
47765;DHT22;33529;49.242;8.670;2022-11-28T08:58:54;5.00;99.90
47765;DHT22;33529;49.242;8.670;2022-11-28T09:01:23;5.00;99.90
47765;DHT22;33529;49.242;8.670;2022-11-28T09:03:51;5.00;99.90
47765;DHT22;33529;49.242;8.670;2022-11-28T09:06:19;5.00;99.90
47765;DHT22;33529;49.242;8.670;2022-11-28T09:08:47;5.10;99.90
47765;DHT22;33529;49.242;8.670;2022-11-28T09:11:17;5.20;99.90
47765;DHT22;33529;49.242;8.670;2022-11-28T09:13:44;5.20;99.90
47765;DHT22;33529;49.242;8.670;2022-11-28T09:16:12;5.20;99.90
47765;DHT22;33529;49.242;8.670;2022-11-28T09:18:38;5.20;99.90
47765;DHT22;33529;49.242;8.670;2022-11-28T09:21:09;5.30;99.90
47765;DHT22;33529;49.242;8.670;2022-11-28T09:23:37;5.30;99.90
47765;DHT22;33529;49.242;8.670;2022-11-28T09:26:23;5.40;99.90
47765;DHT22;33529;49.242;8.670;2022-11-28T09:28:51;5.40;99.90
47765;DHT22;33529;49.242;8.670;2022-11-28T09:31:19;5.40;99.90
47765;DHT22;33529;49.242;8.670;2022-11-28T09:33:46;5.50;99.90
47765;DHT22;33529;49.242;8.670;2022-11-28T09:44:05;5.50;99.90
47765;DHT22;33529;49.242;8.670;2022-11-28T09:46:35;5.50;99.90
47765;DHT22;33529;49.242;8.670;2022-11-28T09:49:16;5.70;99.90
47765;DHT22;33529;49.242;8.670;2022-11-28T09:51:50;5.80;99.90
47765;DHT22;33529;49.242;8.670;2022-11-28T09:57:20;6.00;99.90
47765;DHT22;33529;49.242;8.670;2022-11-28T09:59:51;6.10;99.90
47765;DHT22;33529;49.242;8.670;2022-11-28T10:05:19;6.10;99.90
47765;DHT22;33529;49.242;8.670;2022-11-28T10:19:49;6.50;99.90
47765;DHT22;33529;49.242;8.670;2022-11-28T10:25:06;6.50;99.90
47765;DHT22;33529;49.242;8.670;2022-11-28T10:27:37;6.50;99.90
47765;DHT22;33529;49.242;8.670;2022-11-28T10:30:07;6.60;99.90
47765;DHT22;33529;49.242;8.670;2022-11-28T10:32:41;6.70;99.90
47765;DHT22;33529;49.242;8.670;2022-11-28T10:37:43;6.90;99.90
47765;DHT22;33529;49.242;8.670;2022-11-28T10:40:33;7.00;99.90
47765;DHT22;33529;49.242;8.670;2022-11-28T10:43:35;6.90;99.90
47765;DHT22;33529;49.242;8.670;2022-11-28T10:46:26;6.90;99.90
47765;DHT22;33529;49.242;8.670;2022-11-28T10:51:47;7.00;99.90
47765;DHT22;33529;49.242;8.670;2022-11-28T11:02:21;7.30;99.90
47765;DHT22;33529;49.242;8.670;2022-11-28T11:04:52;7.30;99.90
47765;DHT22;33529;49.242;8.670;2022-11-28T11:07:24;7.40;99.90
47765;DHT22;33529;49.242;8.670;2022-11-28T11:10:01;7.30;99.90
47765;DHT22;33529;49.242;8.670;2022-11-28T11:12:33;7.30;99.90
47765;DHT22;33529;49.242;8.670;2022-11-28T11:15:14;7.20;99.90
47765;DHT22;33529;49.242;8.670;2022-11-28T11:17:42;7.30;99.90
47765;DHT22;33529;49.242;8.670;2022-11-28T11:23:00;7.40;99.90
47765;DHT22;33529;49.242;8.670;2022-11-28T11:25:28;7.30;99.90
47765;DHT22;33529;49.242;8.670;2022-11-28T11:28:02;7.40;99.90
47765;DHT22;33529;49.242;8.670;2022-11-28T11:30:36;7.40;99.90
47765;DHT22;33529;49.242;8.670;2022-11-28T11:33:16;7.50;99.90
47765;DHT22;33529;49.242;8.670;2022-11-28T11:35:44;7.40;99.90
47765;DHT22;33529;49.242;8.670;2022-11-28T11:40:47;7.50;99.90
47765;DHT22;33529;49.242;8.670;2022-11-28T11:43:25;7.60;99.90
47765;DHT22;33529;49.242;8.670;2022-11-28T11:46:09;7.50;99.90
47765;DHT22;33529;49.242;8.670;2022-11-28T11:48:42;7.40;99.90
47765;DHT22;33529;49.242;8.670;2022-11-28T11:51:30;7.40;99.90
47765;DHT22;33529;49.242;8.670;2022-11-28T11:54:25;7.40;99.90
47765;DHT22;33529;49.242;8.670;2022-11-28T11:56:51;7.50;99.90
47765;DHT22;33529;49.242;8.670;2022-11-28T11:59:54;7.50;99.90
47765;DHT22;33529;49.242;8.670;2022-11-28T12:02:29;7.40;99.90
47765;DHT22;33529;49.242;8.670;2022-11-28T12:05:11;7.50;99.90
47765;DHT22;33529;49.242;8.670;2022-11-28T12:10:53;7.70;99.90
47765;DHT22;33529;49.242;8.670;2022-11-28T12:13:23;7.80;99.90
47765;DHT22;33529;49.242;8.670;2022-11-28T12:18:59;7.80;99.90
47765;DHT22;33529;49.242;8.670;2022-11-28T12:21:56;8.00;99.90
47765;DHT22;33529;49.242;8.670;2022-11-28T12:24:37;8.10;99.90
47765;DHT22;33529;49.242;8.670;2022-11-28T12:32:47;8.30;99.90
47765;DHT22;33529;49.242;8.670;2022-11-28T12:35:40;8.20;99.90
47765;DHT22;33529;49.242;8.670;2022-11-28T12:41:34;8.30;99.90
47765;DHT22;33529;49.242;8.670;2022-11-28T12:50:20;8.20;99.90
47765;DHT22;33529;49.242;8.670;2022-11-28T12:55:47;8.40;99.90
47765;DHT22;33529;49.242;8.670;2022-11-28T12:58:28;8.20;99.90
47765;DHT22;33529;49.242;8.670;2022-11-28T13:09:36;8.20;99.90
47765;DHT22;33529;49.242;8.670;2022-11-28T13:12:52;8.20;99.90
47765;DHT22;33529;49.242;8.670;2022-11-28T13:14:51;8.10;99.90
47765;DHT22;33529;49.242;8.670;2022-11-28T13:25:52;7.90;99.90
47765;DHT22;33529;49.242;8.670;2022-11-28T13:31:30;7.80;99.90
47765;DHT22;33529;49.242;8.670;2022-11-28T13:33:59;7.90;99.90
47765;DHT22;33529;49.242;8.670;2022-11-28T13:36:50;8.00;99.90
47765;DHT22;33529;49.242;8.670;2022-11-28T13:39:44;8.00;99.90
47765;DHT22;33529;49.242;8.670;2022-11-28T13:45:30;8.10;99.90
47765;DHT22;33529;49.242;8.670;2022-11-28T13:47:59;8.10;99.90
47765;DHT22;33529;49.242;8.670;2022-11-28T13:53:46;8.20;99.90
47765;DHT22;33529;49.242;8.670;2022-11-28T13:56:24;8.10;99.90
47765;DHT22;33529;49.242;8.670;2022-11-28T13:59:00;8.10;99.90
47765;DHT22;33529;49.242;8.670;2022-11-28T14:01:41;8.10;99.90
47765;DHT22;33529;49.242;8.670;2022-11-28T14:04:12;8.10;99.90
47765;DHT22;33529;49.242;8.670;2022-11-28T14:06:48;8.10;99.90
47765;DHT22;33529;49.242;8.670;2022-11-28T14:12:09;8.00;99.90
47765;DHT22;33529;49.242;8.670;2022-11-28T14:21:22;8.10;99.90
47765;DHT22;33529;49.242;8.670;2022-11-28T14:26:34;8.00;99.90
47765;DHT22;33529;49.242;8.670;2022-11-28T14:29:06;8.00;99.90
47765;DHT22;33529;49.242;8.670;2022-11-28T14:31:45;8.00;99.90
47765;DHT22;33529;49.242;8.670;2022-11-28T14:34:45;8.00;99.90
47765;DHT22;33529;49.242;8.670;2022-11-28T14:39:47;8.00;99.90
47765;DHT22;33529;49.242;8.670;2022-11-28T14:48:28;7.90;99.90
47765;DHT22;33529;49.242;8.670;2022-11-28T14:50:57;7.80;99.90
47765;DHT22;33529;49.242;8.670;2022-11-28T14:53:41;7.80;99.90
47765;DHT22;33529;49.242;8.670;2022-11-28T14:58:37;7.70;99.90
47765;DHT22;33529;49.242;8.670;2022-11-28T15:01:09;7.70;99.90
47765;DHT22;33529;49.242;8.670;2022-11-28T15:04:35;7.80;99.90
47765;DHT22;33529;49.242;8.670;2022-11-28T15:06:42;7.70;99.90
47765;DHT22;33529;49.242;8.670;2022-11-28T15:09:20;7.70;99.90
47765;DHT22;33529;49.242;8.670;2022-11-28T15:14:26;7.70;99.90
47765;DHT22;33529;49.242;8.670;2022-11-28T15:16:59;7.60;99.90
47765;DHT22;33529;49.242;8.670;2022-11-28T15:19:37;7.60;99.90
47765;DHT22;33529;49.242;8.670;2022-11-28T15:22:05;7.60;99.90
47765;DHT22;33529;49.242;8.670;2022-11-28T15:24:34;7.60;99.90
47765;DHT22;33529;49.242;8.670;2022-11-28T15:29:38;7.50;99.90
47765;DHT22;33529;49.242;8.670;2022-11-28T15:32:05;7.50;99.90
47765;DHT22;33529;49.242;8.670;2022-11-28T15:34:36;7.50;99.90
47765;DHT22;33529;49.242;8.670;2022-11-28T15:37:06;7.40;99.90
47765;DHT22;33529;49.242;8.670;2022-11-28T15:39:41;7.40;99.90
47765;DHT22;33529;49.242;8.670;2022-11-28T15:42:20;7.50;99.90
47765;DHT22;33529;49.242;8.670;2022-11-28T15:44:56;7.40;99.90
47765;DHT22;33529;49.242;8.670;2022-11-28T15:47:23;7.40;99.90
47765;DHT22;33529;49.242;8.670;2022-11-28T15:52:26;7.40;99.90
47765;DHT22;33529;49.242;8.670;2022-11-28T15:54:58;7.40;99.90
47765;DHT22;33529;49.242;8.670;2022-11-28T15:57:26;7.30;99.90
47765;DHT22;33529;49.242;8.670;2022-11-28T15:59:54;7.20;99.90
47765;DHT22;33529;49.242;8.670;2022-11-28T16:02:31;7.30;99.90
47765;DHT22;33529;49.242;8.670;2022-11-28T16:05:18;7.30;99.90
47765;DHT22;33529;49.242;8.670;2022-11-28T16:07:49;7.30;99.90
47765;DHT22;33529;49.242;8.670;2022-11-28T16:10:23;7.30;99.90
47765;DHT22;33529;49.242;8.670;2022-11-28T16:12:58;7.30;99.90
47765;DHT22;33529;49.242;8.670;2022-11-28T16:15:26;7.30;99.90
47765;DHT22;33529;49.242;8.670;2022-11-28T16:17:54;7.40;99.90
47765;DHT22;33529;49.242;8.670;2022-11-28T16:20:27;7.30;99.90
47765;DHT22;33529;49.242;8.670;2022-11-28T16:22:56;7.30;99.90
47765;DHT22;33529;49.242;8.670;2022-11-28T16:25:26;7.40;99.90
47765;DHT22;33529;49.242;8.670;2022-11-28T16:27:53;7.30;99.90
47765;DHT22;33529;49.242;8.670;2022-11-28T16:30:32;7.30;99.90
47765;DHT22;33529;49.242;8.670;2022-11-28T16:33:32;7.30;99.90
47765;DHT22;33529;49.242;8.670;2022-11-28T16:38:42;7.30;99.90
47765;DHT22;33529;49.242;8.670;2022-11-28T16:41:35;7.30;99.90
47765;DHT22;33529;49.242;8.670;2022-11-28T16:44:08;7.30;99.90
47765;DHT22;33529;49.242;8.670;2022-11-28T16:46:53;7.30;99.90
47765;DHT22;33529;49.242;8.670;2022-11-28T16:49:36;7.20;99.90
47765;DHT22;33529;49.242;8.670;2022-11-28T16:54:58;7.20;99.90
47765;DHT22;33529;49.242;8.670;2022-11-28T16:57:44;7.10;99.90
47765;DHT22;33529;49.242;8.670;2022-11-28T17:00:11;7.10;99.90
47765;DHT22;33529;49.242;8.670;2022-11-28T17:02:38;7.10;99.90
47765;DHT22;33529;49.242;8.670;2022-11-28T17:05:05;7.10;99.90
47765;DHT22;33529;49.242;8.670;2022-11-28T17:07:32;7.00;99.90
47765;DHT22;33529;49.242;8.670;2022-11-28T17:09:59;7.00;99.90
47765;DHT22;33529;49.242;8.670;2022-11-28T17:12:28;7.10;99.90
47765;DHT22;33529;49.242;8.670;2022-11-28T17:14:57;7.00;99.90
47765;DHT22;33529;49.242;8.670;2022-11-28T17:17:24;6.90;99.90
47765;DHT22;33529;49.242;8.670;2022-11-28T17:19:52;6.90;99.90
47765;DHT22;33529;49.242;8.670;2022-11-28T17:22:24;6.90;99.90
47765;DHT22;33529;49.242;8.670;2022-11-28T17:24:58;6.90;99.90
47765;DHT22;33529;49.242;8.670;2022-11-28T17:27:28;6.90;99.90
47765;DHT22;33529;49.242;8.670;2022-11-28T17:29:55;7.00;99.90
47765;DHT22;33529;49.242;8.670;2022-11-28T17:32:22;7.00;99.90
47765;DHT22;33529;49.242;8.670;2022-11-28T17:34:48;6.90;99.90
47765;DHT22;33529;49.242;8.670;2022-11-28T17:37:15;6.90;99.90
47765;DHT22;33529;49.242;8.670;2022-11-28T17:39:42;6.90;99.90
47765;DHT22;33529;49.242;8.670;2022-11-28T17:42:30;6.90;99.90
47765;DHT22;33529;49.242;8.670;2022-11-28T17:44:57;6.90;99.90
47765;DHT22;33529;49.242;8.670;2022-11-28T17:47:24;6.80;99.90
47765;DHT22;33529;49.242;8.670;2022-11-28T17:49:51;6.80;99.90
47765;DHT22;33529;49.242;8.670;2022-11-28T17:52:19;6.80;99.90
47765;DHT22;33529;49.242;8.670;2022-11-28T17:54:46;6.80;99.90
47765;DHT22;33529;49.242;8.670;2022-11-28T17:57:13;6.80;99.90
47765;DHT22;33529;49.242;8.670;2022-11-28T17:59:40;6.80;99.90
47765;DHT22;33529;49.242;8.670;2022-11-28T18:02:09;6.80;99.90
47765;DHT22;33529;49.242;8.670;2022-11-28T18:04:37;6.80;99.90
47765;DHT22;33529;49.242;8.670;2022-11-28T18:07:04;6.70;99.90
47765;DHT22;33529;49.242;8.670;2022-11-28T18:09:31;6.70;99.90
47765;DHT22;33529;49.242;8.670;2022-11-28T18:11:58;6.80;99.90
47765;DHT22;33529;49.242;8.670;2022-11-28T18:14:24;6.70;99.90
47765;DHT22;33529;49.242;8.670;2022-11-28T18:16:51;6.80;99.90
47765;DHT22;33529;49.242;8.670;2022-11-28T18:19:18;6.80;99.90
47765;DHT22;33529;49.242;8.670;2022-11-28T18:21:45;6.80;99.90
47765;DHT22;33529;49.242;8.670;2022-11-28T18:24:12;6.80;99.90
47765;DHT22;33529;49.242;8.670;2022-11-28T18:26:40;6.80;99.90
47765;DHT22;33529;49.242;8.670;2022-11-28T18:29:07;6.80;99.90
47765;DHT22;33529;49.242;8.670;2022-11-28T18:31:36;6.70;99.90
47765;DHT22;33529;49.242;8.670;2022-11-28T18:34:05;6.80;99.90
47765;DHT22;33529;49.242;8.670;2022-11-28T18:36:35;6.80;99.90
47765;DHT22;33529;49.242;8.670;2022-11-28T18:39:06;6.80;99.90
47765;DHT22;33529;49.242;8.670;2022-11-28T18:41:34;6.70;99.90
47765;DHT22;33529;49.242;8.670;2022-11-28T18:44:03;6.70;99.90
47765;DHT22;33529;49.242;8.670;2022-11-28T18:46:34;6.70;99.90
47765;DHT22;33529;49.242;8.670;2022-11-28T18:49:01;6.80;99.90
47765;DHT22;33529;49.242;8.670;2022-11-28T18:51:31;6.80;99.90
47765;DHT22;33529;49.242;8.670;2022-11-28T18:54:02;6.90;99.90
47765;DHT22;33529;49.242;8.670;2022-11-28T18:56:31;6.80;99.90
47765;DHT22;33529;49.242;8.670;2022-11-28T18:58:58;6.90;99.90
47765;DHT22;33529;49.242;8.670;2022-11-28T19:01:29;6.90;99.90